Time;durP1;ratioP1;P1;durP2;ratioP2;P2;SDS_P1;SDS_P2;PMS_P1;PMS_P2;Temp;Humidity;BMP_temperature;BMP_pressure;BME280_temperature;BME280_humidity;BME280_pressure;Samples;Min_cycle;Max_cycle;Signal;HPM_P1;HPM_P2
2023/10/17 00:00:58;;;;;;;1297.10;454.87;;;7.10;99.90;;;;;;5136901;27;20049;-84
2023/10/17 00:03:24;;;;;;;1298.97;454.10;;;7.50;99.90;;;;;;5145375;27;20045;-84
2023/10/17 00:05:51;;;;;;;1350.57;510.50;;;6.70;99.90;;;;;;5176034;27;20042;-84
2023/10/17 00:08:17;;;;;;;1299.77;455.90;;;7.90;99.90;;;;;;5122606;27;20054;-84
2023/10/17 00:10:46;;;;;;;1351.53;510.13;;;7.70;99.90;;;;;;5155220;27;20050;-83
2023/10/17 00:15:56;;;;;;;1302.63;460.17;;;7.90;99.90;;;;;;5155148;27;20057;-83
2023/10/17 00:18:25;;;;;;;1307.03;460.50;;;7.70;99.90;;;;;;5154943;27;20109;-84
2023/10/17 00:20:52;;;;;;;1310.47;464.33;;;7.30;99.90;;;;;;5155127;27;20514;-83
2023/10/17 00:23:20;;;;;;;1356.40;510.00;;;7.60;99.90;;;;;;5155463;27;20042;-84
2023/10/17 00:25:49;;;;;;;1356.73;513.23;;;7.10;99.90;;;;;;5175911;27;20102;-83
2023/10/17 00:28:15;;;;;;;1356.70;508.47;;;7.80;99.90;;;;;;5156865;27;20037;-84
2023/10/17 00:30:44;;;;;;;1357.33;512.87;;;7.40;99.90;;;;;;5159274;27;20048;-83
2023/10/17 00:33:09;;;;;;;1364.47;516.70;;;7.10;99.90;;;;;;5155652;27;20034;-83
2023/10/17 00:35:45;;;;;;;1307.67;462.97;;;7.60;99.90;;;;;;5136194;27;20391;-83
2023/10/17 00:38:15;;;;;;;1301.32;457.88;;;7.20;99.90;;;;;;5136123;27;20494;-84
2023/10/17 00:43:12;;;;;;;1361.43;512.20;;;7.20;99.90;;;;;;5175520;27;20522;-83
2023/10/17 00:45:39;;;;;;;1358.77;513.07;;;7.20;99.90;;;;;;5175311;27;20043;-84
2023/10/17 00:48:08;;;;;;;1303.37;454.10;;;7.90;99.90;;;;;;5175592;27;20103;-84
2023/10/17 00:50:36;;;;;;;1301.07;450.40;;;7.10;99.90;;;;;;5157008;27;20041;-84
2023/10/17 00:53:03;;;;;;;1308.93;463.37;;;7.50;99.90;;;;;;5156530;27;20038;-84
2023/10/17 00:55:29;;;;;;;1302.97;449.97;;;7.10;99.90;;;;;;5141892;27;20053;-83
2023/10/17 00:57:56;;;;;;;1304.63;455.53;;;7.20;99.90;;;;;;5124344;27;20059;-83
2023/10/17 01:00:25;;;;;;;1303.97;459.13;;;7.90;99.90;;;;;;5098466;28;20513;-83
2023/10/17 01:03:01;;;;;;;1308.70;460.10;;;8.00;99.90;;;;;;5133678;28;20046;-83
2023/10/17 01:05:26;;;;;;;1363.03;514.97;;;7.50;99.90;;;;;;5118817;27;20057;-83
2023/10/17 01:07:52;;;;;;;1378.33;511.83;;;7.10;99.90;;;;;;5155186;27;20397;-84
2023/10/17 01:10:18;;;;;;;1373.67;510.23;;;7.10;99.90;;;;;;5140368;27;20043;-83
2023/10/17 01:13:00;;;;;;;1362.70;509.07;;;7.40;99.90;;;;;;5123324;27;20514;-84
2023/10/17 01:15:28;;;;;;;1360.17;509.17;;;7.70;99.90;;;;;;5140459;27;20078;-83
2023/10/17 01:17:55;;;;;;;1308.37;456.43;;;7.00;99.90;;;;;;5163016;27;20038;-84
2023/10/17 01:20:21;;;;;;;1358.93;508.27;;;7.60;99.90;;;;;;5160791;27;20126;-84
2023/10/17 01:22:55;;;;;;;1359.47;507.67;;;7.60;99.90;;;;;;5160748;27;20050;-84
2023/10/17 01:25:29;;;;;;;1306.60;448.43;;;7.80;99.90;;;;;;5159832;27;20105;-84
2023/10/17 01:27:57;;;;;;;1305.90;453.30;;;8.30;99.90;;;;;;5179390;27;20391;-84
2023/10/17 01:30:23;;;;;;;1359.43;507.77;;;7.40;99.90;;;;;;5177298;27;20035;-84
2023/10/17 01:32:51;;;;;;;1313.03;454.93;;;6.90;99.90;;;;;;5160691;27;20486;-84
2023/10/17 01:35:20;;;;;;;1361.83;506.37;;;7.30;99.90;;;;;;5156983;27;20067;-84
2023/10/17 01:37:46;;;;;;;1358.20;505.97;;;7.30;99.90;;;;;;5158062;27;20039;-84
2023/10/17 01:40:22;;;;;;;1358.73;506.23;;;7.30;99.90;;;;;;5158246;27;20078;-83
2023/10/17 01:42:49;;;;;;;1308.37;448.47;;;6.90;99.90;;;;;;5140010;27;20054;-83
2023/10/17 01:45:16;;;;;;;1320.43;447.70;;;6.90;99.90;;;;;;5162261;27;20038;-84
2023/10/17 01:47:43;;;;;;;1367.67;509.73;;;6.90;99.90;;;;;;5159458;27;20055;-84
2023/10/17 01:50:10;;;;;;;1314.53;456.57;;;7.00;99.90;;;;;;5157441;27;20525;-84
2023/10/17 01:52:37;;;;;;;1371.97;508.43;;;6.90;99.90;;;;;;5138928;27;20126;-83
2023/10/17 01:55:10;;;;;;;1314.20;453.50;;;6.90;99.90;;;;;;5157635;27;20130;-83
2023/10/17 01:57:40;;;;;;;1372.47;514.20;;;7.00;99.90;;;;;;5138966;27;20050;-84
2023/10/17 02:00:14;;;;;;;1314.17;457.67;;;7.60;99.90;;;;;;5157678;27;20047;-84
2023/10/17 02:02:42;;;;;;;1315.80;456.90;;;6.90;99.90;;;;;;5139595;27;20121;-84
2023/10/17 02:05:12;;;;;;;1377.53;512.20;;;6.70;99.90;;;;;;5157807;27;20042;-84
2023/10/17 02:07:38;;;;;;;1379.87;509.70;;;6.90;99.90;;;;;;5138173;27;20047;-83
2023/10/17 02:10:07;;;;;;;1323.17;458.43;;;7.00;99.90;;;;;;5157436;27;20049;-83
2023/10/17 02:12:33;;;;;;;1317.83;459.77;;;7.10;99.90;;;;;;5158461;27;20042;-83
2023/10/17 02:15:00;;;;;;;1318.03;460.43;;;7.40;99.90;;;;;;5157861;27;20042;-84
2023/10/17 02:17:26;;;;;;;1313.73;458.10;;;7.60;99.90;;;;;;5138819;27;20047;-84
2023/10/17 02:19:53;;;;;;;1318.57;457.47;;;7.60;99.90;;;;;;5156116;27;20095;-83
2023/10/17 02:22:19;;;;;;;1314.23;450.43;;;6.70;99.90;;;;;;5138626;27;20043;-83
2023/10/17 02:24:45;;;;;;;1373.33;509.87;;;7.10;99.90;;;;;;5138890;27;20043;-84
2023/10/17 02:27:12;;;;;;;1360.37;506.27;;;6.80;99.90;;;;;;5157091;27;20043;-84
2023/10/17 02:29:44;;;;;;;1309.93;452.07;;;6.60;99.90;;;;;;5162234;27;20042;-83
2023/10/17 02:32:13;;;;;;;1315.77;458.23;;;7.60;99.90;;;;;;5177979;27;20094;-83
2023/10/17 02:34:40;;;;;;;1360.47;508.80;;;7.30;99.90;;;;;;5159310;27;20541;-83
2023/10/17 02:37:10;;;;;;;1363.00;508.87;;;7.30;99.90;;;;;;5158334;27;20050;-83
2023/10/17 02:39:37;;;;;;;1359.87;509.33;;;6.70;99.90;;;;;;5177857;27;20038;-83
2023/10/17 02:42:06;;;;;;;1367.07;508.53;;;6.70;99.90;;;;;;5159022;27;20375;-83
2023/10/17 02:44:32;;;;;;;1305.50;454.90;;;6.60;99.90;;;;;;5159211;27;20042;-83
2023/10/17 02:46:58;;;;;;;1309.93;453.23;;;7.30;99.90;;;;;;5158120;27;20049;-84
2023/10/17 02:49:26;;;;;;;1365.07;508.33;;;6.50;99.90;;;;;;5143873;27;20058;-83
2023/10/17 02:51:54;;;;;;;1305.37;446.10;;;7.10;99.90;;;;;;5138018;27;20047;-83
2023/10/17 02:54:20;;;;;;;1308.97;453.47;;;6.90;99.90;;;;;;5138129;27;20049;-83
2023/10/17 02:56:46;;;;;;;1313.90;450.40;;;6.00;99.90;;;;;;5156359;27;20042;-83
2023/10/17 02:59:13;;;;;;;1311.37;451.17;;;6.70;99.90;;;;;;5156862;27;20356;-83
2023/10/17 03:01:52;;;;;;;1315.33;452.20;;;7.10;99.90;;;;;;5156768;27;20038;-83
2023/10/17 03:04:23;;;;;;;1313.17;447.93;;;7.00;99.90;;;;;;5138159;27;20489;-83
2023/10/17 03:06:59;;;;;;;1358.47;506.97;;;7.00;99.90;;;;;;5156953;27;20077;-83
2023/10/17 03:14:36;;;;;;;1312.63;451.77;;;6.40;99.90;;;;;;5137896;27;20129;-83
2023/10/17 03:17:02;;;;;;;1309.10;451.00;;;6.40;99.90;;;;;;5156311;27;20038;-83
2023/10/17 03:19:28;;;;;;;1361.83;511.10;;;6.30;99.90;;;;;;5138003;27;20053;-83
2023/10/17 03:21:58;;;;;;;1354.20;505.67;;;6.30;99.90;;;;;;5176744;27;20114;-83
2023/10/17 03:24:39;;;;;;;1362.50;506.93;;;6.30;99.90;;;;;;5158019;27;20539;-83
2023/10/17 03:27:07;;;;;;;1308.97;445.73;;;6.80;99.90;;;;;;5141425;27;20043;-83
2023/10/17 03:29:36;;;;;;;1356.17;504.00;;;6.80;99.90;;;;;;5116819;27;20045;-83
2023/10/17 03:32:04;;;;;;;1317.27;455.10;;;6.30;99.90;;;;;;5134750;27;20108;-84
2023/10/17 03:34:37;;;;;;;1355.67;503.07;;;6.30;99.90;;;;;;5120868;27;20066;-83
2023/10/17 03:42:45;;;;;;;1362.10;509.10;;;7.00;99.90;;;;;;5155542;27;20094;-83
2023/10/17 03:48:00;;;;;;;1357.27;509.60;;;6.30;99.90;;;;;;5071542;28;20491;-83
2023/10/17 03:50:34;;;;;;;1357.53;506.00;;;6.40;99.90;;;;;;5055088;28;20515;-84
2023/10/17 03:53:05;;;;;;;1360.33;510.17;;;6.30;99.90;;;;;;5072846;28;20053;-84
2023/10/17 03:55:32;;;;;;;1359.07;508.40;;;6.50;99.90;;;;;;5074507;28;20048;-84
2023/10/17 03:57:59;;;;;;;1356.93;503.77;;;6.60;99.90;;;;;;5091606;28;20222;-83
2023/10/17 04:00:40;;;;;;;1303.73;450.07;;;7.30;99.90;;;;;;5085081;28;20063;-83
2023/10/17 04:03:08;;;;;;;1356.27;503.40;;;7.10;99.90;;;;;;5071146;28;20040;-84
2023/10/17 04:05:34;;;;;;;1301.63;445.23;;;6.40;99.90;;;;;;5071194;28;20099;-84
2023/10/17 04:08:00;;;;;;;1298.53;444.67;;;6.50;99.90;;;;;;5072181;28;20498;-83
2023/10/17 04:10:36;;;;;;;1355.73;505.43;;;6.50;99.90;;;;;;5053352;28;20083;-83
2023/10/17 04:13:22;;;;;;;1304.13;454.73;;;6.50;99.90;;;;;;5070939;28;20057;-83
2023/10/17 04:15:47;;;;;;;1360.07;509.40;;;6.50;99.90;;;;;;5071227;28;20048;-84
2023/10/17 04:18:14;;;;;;;1305.83;459.10;;;6.50;99.90;;;;;;5070998;28;20496;-83
2023/10/17 04:20:44;;;;;;;1327.83;449.13;;;6.80;99.90;;;;;;5070837;28;20099;-83
2023/10/17 04:23:21;;;;;;;1383.83;503.63;;;7.30;99.90;;;;;;5071011;28;20040;-83
2023/10/17 04:25:54;;;;;;;1381.57;506.93;;;6.90;99.90;;;;;;5121285;27;20058;-84
2023/10/17 04:28:19;;;;;;;1381.77;501.73;;;7.10;99.90;;;;;;5131108;27;20047;-83
2023/10/17 04:30:48;;;;;;;1327.70;451.40;;;7.00;99.90;;;;;;5115738;27;20047;-83
2023/10/17 04:33:13;;;;;;;1380.80;502.17;;;6.60;99.90;;;;;;5134245;27;20207;-83
2023/10/17 04:35:55;;;;;;;1387.10;510.93;;;7.20;99.90;;;;;;5162139;27;20046;-83
2023/10/17 04:42:05;;;;;;;1328.73;447.97;;;6.70;99.90;;;;;;5162419;27;20054;-84
2023/10/17 04:44:36;;;;;;;1326.27;455.30;;;6.70;99.90;;;;;;5155061;27;20110;-84
2023/10/17 04:49:32;;;;;;;1325.23;450.27;;;6.70;99.90;;;;;;5154726;27;20046;-83
2023/10/17 04:52:17;;;;;;;1322.47;451.87;;;7.20;99.90;;;;;;5154562;27;20452;-84
2023/10/17 04:54:43;;;;;;;1383.93;509.92;;;7.40;99.90;;;;;;5136215;27;20046;-83
2023/10/17 04:57:15;;;;;;;1384.27;508.30;;;6.80;99.90;;;;;;5150241;27;20133;-83
2023/10/17 04:59:43;;;;;;;1323.87;453.93;;;5.80;99.90;;;;;;5156172;27;20046;-83
2023/10/17 05:07:30;;;;;;;1387.47;503.67;;;8.20;99.90;;;;;;5115573;28;20146;-83
2023/10/17 06:18:57;;;;;;;1325.13;463.77;;;7.20;99.90;;;;;;5178526;27;20106;-86
2023/10/17 06:21:35;;;;;;;1338.77;465.40;;;7.20;99.90;;;;;;5163201;27;20043;-83
2023/10/17 06:26:46;;;;;;;1327.10;457.33;;;7.20;99.90;;;;;;5157448;27;20126;-84
2023/10/17 06:34:14;;;;;;;1394.70;511.30;;;7.30;99.90;;;;;;5157172;27;20053;-84
2023/10/17 06:36:44;;;;;;;1338.87;463.30;;;7.30;99.90;;;;;;5139728;27;20047;-86
2023/10/17 06:39:58;;;;;;;1390.77;510.60;;;7.30;99.90;;;;;;5136526;27;20517;-83
2023/10/17 06:42:14;;;;;;;1336.17;463.43;;;7.30;99.90;;;;;;5125048;27;20046;-85
2023/10/17 06:44:53;;;;;;;1334.37;458.50;;;7.40;99.90;;;;;;5136627;27;20058;-83
2023/10/17 06:47:29;;;;;;;1393.10;510.23;;;7.40;99.90;;;;;;5136511;27;20092;-83
2023/10/17 06:52:40;;;;;;;1393.97;510.20;;;7.40;99.90;;;;;;5157073;27;20082;-85
2023/10/17 06:55:20;;;;;;;1333.10;463.53;;;7.90;99.90;;;;;;5138275;27;20126;-84
2023/10/17 06:57:50;;;;;;;1335.40;462.03;;;7.50;99.90;;;;;;5138046;27;20038;-84
2023/10/17 07:00:17;;;;;;;1399.23;514.13;;;7.50;99.90;;;;;;5138799;27;20038;-85
2023/10/17 07:02:50;;;;;;;1394.10;509.80;;;7.60;99.90;;;;;;5157967;27;20046;-85
2023/10/17 07:05:22;;;;;;;1395.83;512.70;;;7.50;99.90;;;;;;5159150;27;20042;-84
2023/10/17 07:07:59;;;;;;;1395.87;509.40;;;7.60;99.90;;;;;;5165821;27;20049;-81
2023/10/17 07:10:53;;;;;;;1342.83;467.20;;;7.60;99.90;;;;;;5173853;27;20051;-82
2023/10/17 07:14:22;;;;;;;1403.07;511.67;;;8.10;99.90;;;;;;5172856;27;20486;-82
2023/10/17 07:16:45;;;;;;;1405.93;513.97;;;7.70;99.90;;;;;;5173750;27;20039;-81
2023/10/17 07:24:29;;;;;;;1339.93;467.57;;;8.20;99.90;;;;;;5146482;27;20039;-81
2023/10/17 07:26:55;;;;;;;1413.20;517.83;;;7.90;99.90;;;;;;5136481;27;20403;-83
2023/10/17 07:29:22;;;;;;;1406.20;513.37;;;8.50;99.90;;;;;;5136291;27;20451;-84
2023/10/17 07:31:55;;;;;;;1348.70;471.47;;;8.70;99.90;;;;;;5148505;27;20039;-83
2023/10/17 07:34:22;;;;;;;1411.43;515.63;;;8.00;99.90;;;;;;5156524;27;20047;-83
2023/10/17 07:36:50;;;;;;;1417.97;517.53;;;8.10;99.90;;;;;;5162565;27;20058;-86
2023/10/17 07:39:23;;;;;;;1354.60;473.17;;;8.70;99.90;;;;;;5170888;27;20117;-86
2023/10/17 07:41:54;;;;;;;1410.50;518.13;;;8.60;99.90;;;;;;5176102;27;20094;-86
2023/10/17 07:44:27;;;;;;;1346.40;471.20;;;8.20;99.90;;;;;;5158182;27;20046;-84
2023/10/17 07:47:19;;;;;;;1346.03;473.60;;;8.20;99.90;;;;;;5176794;27;20046;-83
2023/10/17 07:49:47;;;;;;;1411.53;514.53;;;8.30;99.90;;;;;;5155316;27;20026;-86
2023/10/17 07:52:15;;;;;;;1415.60;517.57;;;8.40;99.90;;;;;;5154963;27;20034;-86
2023/10/17 07:54:45;;;;;;;1358.93;475.40;;;9.10;99.90;;;;;;5155670;27;20375;-84
2023/10/17 07:57:17;;;;;;;1357.87;478.33;;;9.00;99.90;;;;;;5136231;27;20047;-84
2023/10/17 07:59:52;;;;;;;1425.37;520.30;;;9.00;99.90;;;;;;5134766;27;20053;-85
2023/10/17 08:02:23;;;;;;;1358.23;476.27;;;8.60;99.90;;;;;;5124435;27;20038;-84
2023/10/17 08:04:50;;;;;;;1431.90;519.13;;;9.20;99.90;;;;;;5175344;27;20042;-86
2023/10/17 08:07:20;;;;;;;1357.20;476.83;;;8.70;99.90;;;;;;5157201;27;20047;-83
2023/10/17 08:09:51;;;;;;;1365.97;488.67;;;8.70;99.90;;;;;;5175941;27;20099;-84
2023/10/17 08:12:22;;;;;;;1364.07;478.57;;;9.10;99.90;;;;;;5175416;27;20042;-83
2023/10/17 08:14:57;;;;;;;1443.30;521.03;;;8.80;99.90;;;;;;5163945;27;20049;-85
2023/10/17 08:17:27;;;;;;;;;;;9.20;99.90;;;;;;5136646;27;20115;-83
2023/10/17 08:22:53;;;;;;;1368.00;487.88;;;9.40;99.90;;;;;;5155348;27;20126;-83
2023/10/17 08:25:14;;;;;;;1368.32;490.90;;;9.80;99.90;;;;;;5136505;27;20042;-83
2023/10/17 08:30:23;;;;;;;1447.87;525.77;;;9.40;99.90;;;;;;5169808;27;20038;-84
2023/10/17 08:35:37;;;;;;;1370.07;490.43;;;9.50;99.90;;;;;;5174723;27;20039;-84
2023/10/17 08:38:06;;;;;;;1377.73;490.07;;;9.40;99.90;;;;;;5132933;27;20100;-83
2023/10/17 08:40:32;;;;;;;1456.33;524.97;;;9.40;99.90;;;;;;5134310;27;20039;-83
2023/10/17 08:43:19;;;;;;;1384.40;493.70;;;9.50;99.90;;;;;;5131578;27;20077;-85
2023/10/17 08:45:54;;;;;;;1458.23;525.97;;;10.10;99.90;;;;;;5156967;27;20121;-84
2023/10/17 08:48:20;;;;;;;1456.72;530.75;;;9.70;99.90;;;;;;5157348;27;20082;-85
2023/10/17 08:50:45;;;;;;;1453.57;529.00;;;9.80;99.90;;;;;;5175673;27;20375;-85
2023/10/17 08:53:21;;;;;;;1457.00;533.93;;;9.90;99.90;;;;;;5153401;27;20034;-85
2023/10/17 08:55:48;;;;;;;1448.47;526.20;;;10.00;99.90;;;;;;5156104;27;20049;-85
2023/10/17 08:58:17;;;;;;;1384.53;504.10;;;10.60;99.90;;;;;;5156910;27;20370;-83
2023/10/17 09:03:23;;;;;;;1457.67;531.43;;;10.40;99.90;;;;;;5161465;27;20046;-83
2023/10/17 09:06:05;;;;;;;1381.37;503.80;;;11.00;99.90;;;;;;5153338;27;20038;-83
2023/10/17 09:11:15;;;;;;;1381.93;511.30;;;10.80;99.90;;;;;;5154150;27;20057;-82
2023/10/17 09:16:16;;;;;;;1270.78;593.03;;;11.20;99.90;;;;;;5135991;27;19926;-81
2023/10/17 09:18:49;;;;;;;1380.37;514.97;;;11.30;99.90;;;;;;5136045;27;20395;-82
2023/10/17 09:21:16;;;;;;;1389.60;512.77;;;10.80;99.90;;;;;;5154176;27;20129;-82
2023/10/17 09:23:42;;;;;;;1469.03;539.87;;;10.90;99.90;;;;;;5154379;27;20038;-84
2023/10/17 09:26:10;;;;;;;1391.87;521.53;;;11.00;99.90;;;;;;5154350;27;20046;-81
2023/10/17 09:28:39;;;;;;;1391.83;522.83;;;11.30;99.90;;;;;;5136409;27;20039;-81
2023/10/17 09:31:06;;;;;;;1471.23;541.30;;;11.80;99.90;;;;;;5158029;27;20159;-85
2023/10/17 09:33:33;;;;;;;1473.03;535.57;;;11.90;99.90;;;;;;5157653;27;20039;-85
2023/10/17 09:36:04;;;;;;;1476.07;543.20;;;11.90;99.90;;;;;;5158801;27;20078;-87
2023/10/17 09:38:43;;;;;;;1480.33;544.10;;;11.40;99.90;;;;;;5158325;27;20031;-84
2023/10/17 09:41:11;;;;;;;1392.97;535.37;;;11.50;99.90;;;;;;5158191;27;20616;-85
2023/10/17 09:43:38;;;;;;;1398.87;533.93;;;12.10;99.90;;;;;;5157851;27;20043;-86
2023/10/17 09:46:14;;;;;;;1406.50;535.97;;;11.70;99.90;;;;;;5157968;27;20049;-82
2023/10/17 09:48:46;;;;;;;1403.63;530.17;;;12.30;99.90;;;;;;5176273;27;20582;-86
2023/10/17 09:51:21;;;;;;;1493.23;546.97;;;12.40;99.90;;;;;;5159800;27;20072;-85
2023/10/17 09:53:53;;;;;;;1404.18;540.63;;;12.00;99.90;;;;;;5157713;27;20546;-87
2023/10/17 09:56:38;;;;;;;1407.63;533.20;;;12.20;99.90;;;;;;5158098;27;20113;-85
2023/10/17 09:59:11;;;;;;;1399.82;557.88;;;12.20;99.90;;;;;;5158084;27;20053;-84
2023/10/17 10:01:39;;;;;;;1402.83;547.03;;;12.40;99.90;;;;;;5162030;27;20061;-85
2023/10/17 10:04:07;;;;;;;1494.80;548.37;;;12.30;99.90;;;;;;5178955;27;20035;-85
2023/10/17 10:06:36;;;;;;;1406.70;558.50;;;12.50;99.90;;;;;;5159930;27;20056;-82
2023/10/17 10:11:53;;;;;;;1490.47;551.30;;;12.40;99.90;;;;;;5076573;28;20503;-86
2023/10/17 10:14:30;;;;;;;1406.53;561.40;;;12.80;99.90;;;;;;5093955;28;20154;-86
2023/10/17 10:17:03;;;;;;;1491.40;551.90;;;12.60;99.90;;;;;;5093642;28;20044;-82
2023/10/17 10:19:40;;;;;;;1490.23;549.97;;;12.60;99.90;;;;;;5093327;28;20110;-86
2023/10/17 10:22:07;;;;;;;1488.67;552.53;;;12.60;99.90;;;;;;5093312;28;20094;-87
2023/10/17 10:24:36;;;;;;;1403.10;567.87;;;12.60;99.90;;;;;;5093416;28;20036;-83
2023/10/17 10:27:19;;;;;;;1405.53;557.40;;;12.60;99.90;;;;;;5093583;28;20079;-85
2023/10/17 10:29:47;;;;;;;1402.87;567.10;;;12.70;99.90;;;;;;5088963;28;20091;-84
2023/10/17 10:32:25;;;;;;;1487.70;557.30;;;12.90;99.90;;;;;;5093516;28;20044;-86
2023/10/17 10:34:52;;;;;;;1404.97;572.43;;;12.90;99.90;;;;;;5093927;28;20048;-88
2023/10/17 10:37:18;;;;;;;1485.80;552.97;;;13.10;99.90;;;;;;5093125;28;20052;-86
2023/10/17 10:40:12;;;;;;;1488.97;556.20;;;13.40;99.90;;;;;;5092496;28;20047;-88
2023/10/17 10:42:42;;;;;;;1491.13;560.73;;;13.10;99.90;;;;;;5093609;28;20500;-88
2023/10/17 10:48:32;;;;;;;1493.00;557.13;;;13.20;99.90;;;;;;5072440;28;20576;-86
2023/10/17 10:51:00;;;;;;;1490.63;556.10;;;13.40;99.90;;;;;;5097990;28;20040;-85
2023/10/17 10:53:29;;;;;;;1495.67;561.20;;;13.60;99.90;;;;;;5076268;28;20091;-86
2023/10/17 10:56:11;;;;;;;1408.90;585.67;;;13.90;99.90;;;;;;5092960;28;20052;-88
2023/10/17 10:58:51;;;;;;;1409.13;588.00;;;14.20;99.90;;;;;;5088821;28;20535;-87
2023/10/17 11:01:18;;;;;;;1410.03;589.70;;;13.40;99.90;;;;;;5097684;28;20077;-85
2023/10/17 11:03:48;;;;;;;1409.03;593.60;;;13.50;99.90;;;;;;5075845;28;20135;-85
2023/10/17 11:06:19;;;;;;;1406.07;592.07;;;13.40;99.90;;;;;;5076027;28;20068;-94
2023/10/17 11:08:46;;;;;;;1498.27;567.47;;;13.40;99.90;;;;;;5092683;28;20138;-92
2023/10/17 11:11:16;;;;;;;1406.53;593.57;;;13.40;99.90;;;;;;5092394;28;20170;-89
2023/10/17 11:13:49;;;;;;;1495.07;574.47;;;13.40;99.90;;;;;;5058890;28;20108;-84
2023/10/17 11:16:21;;;;;;;1489.20;566.67;;;13.40;99.90;;;;;;5091530;28;20058;-92
2023/10/17 11:18:47;;;;;;;1499.73;579.07;;;13.50;99.90;;;;;;5112926;28;20460;-91
2023/10/17 11:21:18;;;;;;;1492.53;570.47;;;13.60;99.90;;;;;;5095076;28;20081;-83
2023/10/17 11:23:54;;;;;;;1497.80;571.47;;;13.70;99.90;;;;;;5092232;27;20556;-86
2023/10/17 11:26:25;;;;;;;1489.30;566.63;;;13.60;99.90;;;;;;5155987;27;20071;-87
2023/10/17 11:28:52;;;;;;;1489.43;571.87;;;13.60;99.90;;;;;;5137870;27;20083;-86
2023/10/17 11:31:22;;;;;;;1493.63;578.93;;;13.70;99.90;;;;;;5137220;27;20039;-85
2023/10/17 11:33:58;;;;;;;1496.53;577.73;;;13.70;99.90;;;;;;5156160;27;20127;-86
2023/10/17 11:36:25;;;;;;;1494.60;577.70;;;13.70;99.90;;;;;;5136955;27;20047;-84
2023/10/17 11:39:04;;;;;;;1495.40;576.27;;;13.80;99.90;;;;;;5156172;27;20049;-87
2023/10/17 11:41:31;;;;;;;1411.53;605.50;;;13.80;99.90;;;;;;5174460;27;20077;-84
2023/10/17 11:44:04;;;;;;;1497.33;579.97;;;14.50;99.90;;;;;;5176538;27;20447;-85
2023/10/17 11:46:39;;;;;;;1496.93;584.10;;;13.90;99.90;;;;;;5176872;27;20063;-84
2023/10/17 11:49:26;;;;;;;1493.88;578.80;;;13.70;99.90;;;;;;5158269;27;20382;-84
2023/10/17 11:52:01;;;;;;;1495.60;581.70;;;13.80;99.90;;;;;;5166343;27;20103;-82
2023/10/17 11:54:27;;;;;;;1496.47;583.43;;;13.90;99.90;;;;;;5155240;27;20118;-82
2023/10/17 11:56:56;;;;;;;1408.90;607.20;;;13.90;99.90;;;;;;5156500;27;20518;-85
2023/10/17 11:59:22;;;;;;;1408.17;605.73;;;13.90;99.90;;;;;;5138311;27;20487;-83
2023/10/17 12:01:55;;;;;;;1499.27;579.97;;;13.90;99.90;;;;;;5155456;27;20042;-86
2023/10/17 12:04:24;;;;;;;1494.77;579.27;;;14.30;99.90;;;;;;5155570;27;20035;-86
2023/10/17 12:06:49;;;;;;;1411.27;609.07;;;14.10;99.90;;;;;;5137010;27;20038;-82
2023/10/17 12:09:18;;;;;;;1497.20;580.23;;;14.00;99.90;;;;;;5155361;27;20042;-83
2023/10/17 12:11:47;;;;;;;1412.50;617.63;;;14.20;99.90;;;;;;5155256;27;20104;-85
2023/10/17 12:14:22;;;;;;;1496.53;581.93;;;13.90;99.90;;;;;;5165654;27;20076;-83
2023/10/17 12:16:54;;;;;;;1409.97;610.73;;;14.20;99.90;;;;;;5176128;27;20122;-83
2023/10/17 12:19:26;;;;;;;1493.57;581.60;;;14.00;99.90;;;;;;5175963;27;20075;-83
2023/10/17 12:21:53;;;;;;;1403.73;610.80;;;14.00;99.90;;;;;;5176204;27;20053;-83
2023/10/17 12:24:24;;;;;;;1497.67;587.07;;;14.10;99.90;;;;;;5157423;27;20112;-82
2023/10/17 12:26:50;;;;;;;1494.27;582.20;;;14.00;99.90;;;;;;5166591;27;20048;-82
2023/10/17 12:29:19;;;;;;;1500.20;583.40;;;14.10;99.90;;;;;;5167228;27;20042;-83
2023/10/17 12:31:45;;;;;;;1413.13;617.50;;;14.20;99.90;;;;;;5156300;27;20044;-83
2023/10/17 12:34:15;;;;;;;1495.80;586.47;;;14.00;99.90;;;;;;5157037;27;20058;-84
2023/10/17 12:36:41;;;;;;;1493.40;582.33;;;14.10;99.90;;;;;;5175557;27;20110;-81
2023/10/17 12:39:07;;;;;;;1415.17;631.03;;;14.00;99.90;;;;;;5175589;27;20125;-82
2023/10/17 12:41:35;;;;;;;1499.30;592.03;;;14.00;99.90;;;;;;5156952;27;20545;-82
2023/10/17 12:44:01;;;;;;;1411.10;623.30;;;14.00;99.90;;;;;;5175717;27;20042;-82
2023/10/17 12:46:26;;;;;;;1410.13;624.17;;;14.00;99.90;;;;;;5175200;27;20042;-83
2023/10/17 12:48:53;;;;;;;1409.83;619.03;;;14.30;99.90;;;;;;5152481;27;20062;-81
2023/10/17 12:51:21;;;;;;;1408.93;624.23;;;13.70;99.90;;;;;;5154332;27;20497;-84
2023/10/17 12:53:47;;;;;;;1405.80;614.33;;;14.00;99.90;;;;;;5132765;27;20399;-84
2023/10/17 12:56:13;;;;;;;1408.73;621.93;;;14.20;99.90;;;;;;5153000;27;20035;-86
2023/10/17 12:58:40;;;;;;;1409.63;624.43;;;14.10;99.90;;;;;;5154637;27;20042;-85
2023/10/17 13:01:06;;;;;;;1406.40;623.27;;;14.10;99.90;;;;;;5142905;27;20043;-84
2023/10/17 13:03:38;;;;;;;1489.17;585.60;;;14.10;99.90;;;;;;5155917;27;20041;-84
2023/10/17 13:06:10;;;;;;;1403.43;619.60;;;14.10;99.90;;;;;;5142976;27;20122;-84
2023/10/17 13:08:36;;;;;;;1489.57;587.00;;;14.20;99.90;;;;;;5160971;27;20061;-85
2023/10/17 13:11:03;;;;;;;1491.63;586.40;;;13.90;99.90;;;;;;5125158;27;20125;-83
2023/10/17 13:13:32;;;;;;;1489.80;588.43;;;14.00;99.90;;;;;;5161118;27;20047;-83
2023/10/17 13:15:59;;;;;;;1487.33;585.10;;;13.90;99.90;;;;;;5160785;27;20398;-82
2023/10/17 13:18:25;;;;;;;1401.50;618.57;;;14.00;99.90;;;;;;5154291;27;20042;-81
2023/10/17 13:20:57;;;;;;;1400.17;626.97;;;14.00;99.90;;;;;;5142379;27;20126;-86
2023/10/17 13:23:25;;;;;;;1484.83;583.87;;;14.00;99.90;;;;;;5160698;27;20456;-82
2023/10/17 13:25:53;;;;;;;1485.63;583.93;;;14.10;99.90;;;;;;5161467;27;20039;-82
2023/10/17 13:28:20;;;;;;;1485.47;585.20;;;14.60;99.90;;;;;;5160980;27;20043;-82
2023/10/17 13:30:45;;;;;;;1486.43;585.67;;;14.20;99.90;;;;;;5160738;27;20090;-83
2023/10/17 13:33:11;;;;;;;1490.00;590.20;;;14.10;99.90;;;;;;5161407;27;20444;-82
2023/10/17 13:35:40;;;;;;;1487.57;582.43;;;14.20;99.90;;;;;;5160918;27;20047;-82
2023/10/17 13:38:06;;;;;;;1399.53;633.63;;;14.50;99.90;;;;;;5160983;27;20506;-81
2023/10/17 13:40:32;;;;;;;1406.90;629.43;;;14.20;99.90;;;;;;5179071;27;20069;-82
2023/10/17 13:43:00;;;;;;;1488.33;585.63;;;14.20;99.90;;;;;;5161173;27;20114;-81
2023/10/17 13:45:27;;;;;;;1486.77;584.40;;;14.20;99.90;;;;;;5168735;27;20386;-84
2023/10/17 13:47:54;;;;;;;1404.10;624.33;;;14.10;99.90;;;;;;5162610;27;20108;-82
2023/10/17 13:50:21;;;;;;;1402.97;625.73;;;14.20;99.90;;;;;;5161071;27;20027;-84
2023/10/17 13:52:48;;;;;;;1404.93;621.13;;;14.80;99.90;;;;;;5160781;27;20039;-82
2023/10/17 13:55:25;;;;;;;1399.40;630.37;;;14.00;99.90;;;;;;5142012;27;20261;-82
2023/10/17 13:58:04;;;;;;;1489.13;591.87;;;14.10;99.90;;;;;;5156616;27;20046;-83
2023/10/17 14:00:44;;;;;;;1406.60;624.27;;;14.10;99.90;;;;;;5151405;27;20133;-82
2023/10/17 14:03:12;;;;;;;1403.77;624.17;;;14.00;99.90;;;;;;5157533;27;20053;-81
2023/10/17 14:05:41;;;;;;;1409.63;630.70;;;13.80;99.90;;;;;;5146294;27;20046;-83
2023/10/17 14:08:13;;;;;;;1490.00;585.70;;;13.70;99.90;;;;;;5136438;27;20058;-81
2023/10/17 14:10:46;;;;;;;1402.43;612.90;;;13.60;99.90;;;;;;5119882;27;20042;-83
2023/10/17 14:13:16;;;;;;;1407.87;614.23;;;13.90;99.90;;;;;;5133365;27;20042;-82
2023/10/17 14:15:43;;;;;;;1408.20;614.10;;;13.80;99.90;;;;;;5161113;27;20494;-83
2023/10/17 14:18:14;;;;;;;1487.80;585.07;;;13.30;99.90;;;;;;5156345;27;20042;-82
2023/10/17 14:23:29;;;;;;;1398.90;604.08;;;13.30;99.90;;;;;;5128320;27;20471;-83
2023/10/17 14:26:09;;;;;;;1403.37;607.57;;;13.10;99.90;;;;;;5145915;27;20063;-85
2023/10/17 14:28:36;;;;;;;1480.70;572.13;;;13.50;99.90;;;;;;5157932;27;20117;-83
2023/10/17 14:31:06;;;;;;;1485.53;575.70;;;13.40;99.90;;;;;;5156725;27;20483;-83
2023/10/17 14:33:32;;;;;;;1402.37;598.37;;;13.00;99.90;;;;;;5156846;27;20086;-82
2023/10/17 14:36:05;;;;;;;1481.70;576.63;;;12.90;99.90;;;;;;5156366;27;20049;-82
2023/10/17 14:38:34;;;;;;;1484.13;577.80;;;12.80;99.90;;;;;;5156050;27;20026;-83